This is the latest recevied weather packets stored in our database for station/object LEAS. If no packets are shown the sender has not sent any weather packets the latest 10 day(s).
| Time | Temp. | Humidity | Pressure | Rain* | Wind** | Luminosity | Snow |
|---|---|---|---|---|---|---|---|
| 1777901404 | 15° C | 72% | 1015 hPa | - | - | - | - |
| 1777900504 | 15° C | 72% | 1015 hPa | - | - | - | - |
| 1777899605 | 15° C | 76% | 1015 hPa | - | - | - | - |
| 1777896903 | 13.89° C | 71% | 1015 hPa | - | - | - | - |
| 1777896004 | 15° C | 62% | 1015 hPa | - | - | - | - |
| 1777892404 | 13.89° C | 76% | 1015 hPa | - | - | - | - |
| 1777890604 | 15° C | 67% | 1015 hPa | - | - | - | - |
| 1777888804 | 15° C | 72% | 1015 hPa | - | - | - | - |
| 1777887904 | 15° C | 72% | 1015 hPa | - | - | - | - |
| 1777886104 | 12.78° C | 76% | 1015 hPa | - | - | - | - |
| 1777885204 | 12.22° C | 81% | 1015 hPa | - | - | - | - |
| 1777884303 | 12.22° C | 81% | 1015 hPa | - | - | - | - |
| 1777882503 | 12.78° C | 82% | 1014 hPa | - | - | - | - |
| 1777881604 | 12.22° C | 81% | 1014 hPa | - | - | - | - |
| 1777880703 | 12.22° C | 81% | 1014 hPa | - | - | - | - |
| 1777879804 | 10° C | 93% | 1014 hPa | - | - | - | - |
| 1777878904 | 10° C | 93% | 1014 hPa | - | - | - | - |
| 1777876204 | 8.89° C | 100% | 1014 hPa | - | - | - | - |
| 1777875304 | 8.89° C | 100% | 1014 hPa | - | - | - | - |
| 1777874404 | 10° C | 93% | 1014 hPa | - | - | - | - |
| 1777871704 | 10° C | 93% | 1014 hPa | - | - | - | - |
| 1777869004 | 11.11° C | 93% | 1014 hPa | - | - | - | - |
| 1777868104 | 11.11° C | 93% | 1014 hPa | - | - | - | - |
| 1777866304 | 11.11° C | 93% | 1014 hPa | - | - | - | - |
| 1777864503 | 11.11° C | 93% | 1014 hPa | - | - | - | - |
* Rain since midnight (hover to see other rain measurements)
** Current wind speed in m/s (hover to see current wind gust speed)